• Join FlightAware (Why Join?)
  • Login
  • US Flag 
08:27PM EST


 

Airport Tracker/Info


-or-


 

Live Flight TrackerFlight Track Log ✈ SWA2975 ✈ 27-Jun-2013 ✈ KMDW - KALB

Flight Track Log - Related Links

Times and Time Zones

All times are in EDT time to prevent confusion due to time zone crossing. See the SWA2975 flight status page for this flight to view local times or setup timezone preferences in your user account.

Time Position Orientation Groundspeed Altitude Reporting Facility
EDT Latitude Longitude Course Direction KTS MPH feet Rate Location/Type
11:07PM 41.7970 -87.7670 317° Northwest 152 175 1,700  Level FlightAware
11:07PM 41.8110 -87.7680 357° North 196 226 2,200 1,241 Climbing FlightAware
11:07PM 41.8200 -87.7590 37° Northeast 228 262 2,300 1,714 Climbing FlightAware
11:08PM 41.8250 -87.7350 74° East 252 290 3,000 2,000 Climbing FlightAware
11:08PM 41.8240 -87.6920 92° East 255 293 3,800 1,800 Climbing FlightAware
11:08PM 41.8240 -87.6720 90° East 270 311 4,200 2,000 Climbing FlightAware
11:09PM 41.8220 -87.6170 93° East 290 334 5,200 1,017 Climbing FlightAware
11:09PM 41.8210 -87.5670 92° East 289 333 5,200  Level FlightAware
11:10PM 41.8200 -87.5330 92° East 287 330 5,200 340 Level FlightAware
11:10PM 41.8180 -87.4750 93° East 289 333 5,500 1,174 Climbing FlightAware
11:10PM 41.8170 -87.4520 93° East 289 333 6,100 3,450 Climbing FlightAware
11:11PM 41.8150 -87.4020 93° East 289 333 7,800 3,346 Climbing FlightAware
11:11PM 41.8150 -87.3580 90° East 299 344 9,000 2,959 Climbing FlightAware
11:12PM 41.8160 -87.2630 89° East 321 369 11,400 2,703 Climbing FlightAware
11:13PM 41.8250 -87.1790 82° East 331 381 13,100 2,458 Climbing FlightAware
11:14PM 41.8350 -87.0930 81° East 345 397 14,800 2,500 Climbing FlightAware
11:14PM 41.8470 -87.0010 80° East 357 411 16,600 1,735 Climbing FlightAware
11:15PM 41.8570 -86.9080 82° East 405 466 17,200 1,481 Climbing FlightAware
11:16PM 41.8640 -86.8030 85° East 424 488 18,600 2,023 Climbing FlightAware
11:16PM 41.8730 -86.6810 84° East 440 506 20,100 2,047 Climbing FlightAware
11:17PM 41.8810 -86.5710 84° East 450 518 21,500 2,096 Climbing FlightAware
11:18PM 41.8900 -86.4530 84° East 457 526 23,000 2,024 Climbing FlightAware
11:18PM 41.8980 -86.3390 85° East 464 534 24,300 1,829 Climbing FlightAware
11:19PM 41.9070 -86.2170 84° East 474 545 25,500 1,571 Climbing FlightAware
11:20PM 41.9150 -86.0970 85° East 481 554 26,500 1,425 Climbing FlightAware
11:20PM 41.9230 -85.9820 85° East 488 562 27,400 1,286 Climbing FlightAware
11:21PM 41.9330 -85.8380 85° East 497 572 28,300 1,253 Climbing FlightAware
11:22PM 41.9420 -85.7060 85° East 502 578 29,300 1,200 Climbing FlightAware
11:23PM 41.9500 -85.5770 85° East 511 588 30,000 988 Climbing FlightAware
11:23PM 41.9600 -85.4310 85° East 518 596 30,700 1,084 Climbing FlightAware
11:24PM 41.9670 -85.3130 85° East 522 601 31,500 1,200 Climbing FlightAware
11:25PM 41.9750 -85.1930 85° East 525 604 32,200 824 Climbing FlightAware
11:26PM 41.9870 -84.9970 85° East 526 605 32,900 736 Climbing FlightAware
11:26PM 41.9950 -84.8680 85° East 525 604 33,500 2,074 Climbing FlightAware
11:27PM 42.0050 -84.7210 85° East 500 575 35,700 1,786 Climbing FlightAware
11:28PM 42.0210 -84.5870 81° East 501 577 36,000 225 Climbing FlightAware
11:28PM 42.0340 -84.4770 81° East 501 577 36,000  Level FlightAware
11:29PM 42.0490 -84.3430 81° East 496 571 36,000  Level FlightAware
11:30PM 42.0630 -84.2220 81° East 492 566 36,000  Level FlightAware
11:31PM 42.0770 -84.0940 82° East 492 566 36,000  Level FlightAware
11:31PM 42.0920 -83.9560 82° East 493 567 36,000  Level FlightAware
11:32PM 42.1060 -83.8280 82° East 485 558 36,000  Level FlightAware
11:33PM 42.1190 -83.7030 82° East 483 556 36,000  Level FlightAware
11:33PM 42.1330 -83.5720 82° East 482 555 36,000 279 Level FlightAware
11:34PM 42.1460 -83.4480 82° East 482 555 36,400 732 Climbing FlightAware
11:35PM 42.1590 -83.3280 82° East 481 554 37,000 450 Climbing FlightAware
11:35PM 42.1720 -83.2080 82° East 484 557 37,000  Level FlightAware
11:36PM 42.1840 -83.0830 83° East 486 559 37,000  Level FlightAware
11:37PM 42.1980 -82.9500 82° East 490 564 37,000  Level FlightAware
11:38PM 42.2100 -82.8230 83° East 492 566 37,000  Level FlightAware
11:38PM 42.2230 -82.6960 82° East 491 565 37,000  Level FlightAware
11:39PM 42.2360 -82.5620 82° East 488 562 37,000  Level FlightAware
11:40PM 42.2460 -82.4540 83° East 486 559 37,000  Level FlightAware
11:40PM 42.2590 -82.3170 83° East 489 563 37,000  Level FlightAware
11:41PM 42.2710 -82.1930 83° East 489 563 37,000  Level FlightAware
11:42PM 42.2840 -82.0550 83° East 488 562 37,000  Level FlightAware
11:42PM 42.2950 -81.9360 83° East 489 563 37,000  Level FlightAware
11:43PM 42.3070 -81.8050 83° East 488 562 37,000  Level FlightAware
11:44PM 42.3180 -81.6820 83° East 488 562 37,000  Level FlightAware
11:45PM 42.3320 -81.5180 83° East 488 562 37,000  Level FlightAware
11:46PM 42.3440 -81.3880 83° East 489 563 37,000  Level FlightAware
11:46PM 42.3550 -81.2580 83° East 490 564 37,000  Level FlightAware
11:47PM 42.3660 -81.1320 83° East 491 565 37,000  Level FlightAware
11:48PM 42.3780 -80.9950 83° East 491 565 37,000  Level FlightAware
11:48PM 42.3890 -80.8600 84° East 490 564 37,000  Level FlightAware
11:49PM 42.3970 -80.7500 84° East 490 564 37,000  Level FlightAware
11:50PM 42.4070 -80.6230 84° East 483 556 37,000  Level FlightAware
11:50PM 42.4160 -80.5120 84° East 475 547 37,000  Level FlightAware
11:51PM 42.4280 -80.3600 84° East 474 545 37,000  Level FlightAware
11:52PM 42.4370 -80.2500 84° East 473 544 37,000  Level FlightAware
11:53PM 42.4460 -80.1250 84° East 469 540 37,000  Level FlightAware
11:53PM 42.4550 -80.0050 84° East 467 537 37,000  Level FlightAware
11:54PM 42.4640 -79.8870 84° East 466 536 37,000  Level FlightAware
11:55PM 42.4740 -79.7530 84° East 466 536 37,000  Level FlightAware
11:55PM 42.4820 -79.6390 85° East 465 535 37,000  Level FlightAware
11:56PM 42.4910 -79.5140 84° East 466 536 37,000  Level FlightAware
11:57PM 42.5000 -79.3920 84° East 472 543 37,000  Level FlightAware
11:57PM 42.5080 -79.2700 85° East 473 544 37,000  Level FlightAware
11:58PM 42.5160 -79.1400 85° East 470 541 37,000  Level FlightAware
11:59PM 42.5240 -79.0180 85° East 469 540 37,000  Level FlightAware
12:00AM 42.5320 -78.9010 85° East 469 540 37,000  Level FlightAware
12:00AM 42.5400 -78.7770 85° East 470 541 37,000  Level FlightAware
12:01AM 42.5480 -78.6430 85° East 474 545 37,000  Level FlightAware
12:02AM 42.5550 -78.5290 85° East 474 545 37,000  Level FlightAware
12:02AM 42.5630 -78.3950 85° East 474 545 37,000  Level FlightAware
12:03AM 42.5700 -78.2770 85° East 474 545 37,000  Level FlightAware
12:04AM 42.5780 -78.1510 85° East 474 545 37,000 -450 Level FlightAware
12:04AM 42.5840 -78.0430 86° East 464 534 36,400 -929 Descending FlightAware
12:05AM 42.5920 -77.9130 85° East 448 516 35,700 -977 Descending FlightAware
12:06AM 42.5980 -77.8000 86° East 441 507 35,000 -1,024 Descending FlightAware
12:07AM 42.6040 -77.6860 86° East 445 512 34,300 -988 Descending FlightAware
12:07AM 42.6100 -77.5620 86° East 455 524 33,600 -988 Descending FlightAware
12:08AM 42.6170 -77.4390 86° East 463 533 32,900 -907 Descending FlightAware
12:09AM 42.6230 -77.3140 86° East 463 533 32,300 -929 Descending FlightAware
12:09AM 42.6290 -77.1970 86° East 465 535 31,600 -1,000 Descending FlightAware
12:10AM 42.6360 -77.0680 86° East 463 533 30,900 -1,000 Descending FlightAware
12:11AM 42.6400 -76.9710 87° East 463 533 30,300 -1,059 Descending FlightAware
12:11AM 42.6450 -76.8720 86° East 460 529 29,700 -1,026 Descending FlightAware
12:12AM 42.6500 -76.7520 87° East 441 507 29,000 -512 Descending FlightAware
12:13AM 42.6550 -76.6450 86° East 433 498 29,000 -500 Level FlightAware
12:13AM 42.6590 -76.5590 86° East 429 494 28,400 -1,083 Descending FlightAware
12:14AM 42.6640 -76.4510 86° East 426 490 27,700 -1,024 Descending FlightAware
12:14AM 42.6690 -76.3380 87° East 428 493 27,000 -969 Descending FlightAware
12:18AM 42.6900 -75.7970 87° East 407 468 23,500 -1,000 Descending FlightAware
12:19AM 42.6990 -75.5620 87° East 393 452 22,000 -1,041 Descending FlightAware
12:22AM 42.7110 -75.1930 87° East 366 421 19,300 -1,049 Descending FlightAware
12:23AM 42.7150 -75.0810 87° East 349 402 18,400 -1,465 Descending FlightAware
12:24AM 42.7170 -74.9940 88° East 343 395 17,200 -1,692 Descending FlightAware
12:24AM 42.7200 -74.9130 87° East 336 387 16,200 -1,714 Descending FlightAware
12:25AM 42.7230 -74.8170 88° East 334 384 14,800 -1,200 Descending FlightAware
12:26AM 42.7250 -74.7460 88° East 334 384 14,500 -212 Descending FlightAware
12:26AM 42.7280 -74.6640 87° East 334 384 14,500  Level FlightAware
12:27AM 42.7310 -74.5980 86° East 334 384 14,500 -1,747 Level FlightAware
12:32AM 42.8930 -74.0690 67° East 256 295 3,900 -1,863 Descending FlightAware
12:33AM 42.9050 -74.0420 59° Northeast 249 287 3,600 -667 Descending FlightAware
12:33AM 42.9200 -73.9980 65° Northeast 219 252 3,300 -393 Descending FlightAware
12:34AM 42.9230 -73.9600 84° East 185 213 3,200 -113 Descending FlightAware
12:34AM 42.9260 -73.9370 80° East 163 188 3,200 -577 Level FlightAware
12:35AM 42.9290 -73.9070 82° East 157 181 2,700 -900 Descending FlightAware
12:35AM 42.9310 -73.8780 85° East 144 166 2,300 -333 Descending FlightAware
12:36AM 42.9250 -73.8470 105° East 146 168 2,300  Level FlightAware
12:37AM 42.9010 -73.8300 153° Southeast 149 171 2,300 -203 Level FlightAware
12:38AM 42.8464 -73.8136 153° Southeast 161 185 1,900 -529 Descending Boston Center
12:39AM 42.8006 -73.8097 176° South 156 180 1,100 -793 Descending Boston Center
12:40AM 42.7589 -73.8058 176° South 156 180 300 -800 Descending Boston Center
12:42AM 42.7491 -73.8020 North  Level Estimated
12:49AM 42.7491 -73.8020 North  Level Estimated
12:50AM 42.7491 -73.8020 North  Level Estimated